Sicklerville, New Jersey
Current Conditions -  °F | °C
As of 8:41 PM on Wednesday 22 Oct 2014 (Local Time) from KVAY Reporting Station
Moderate Rain Moderate Rain  
Wind Chill: 52°   Ceiling: 1300
Heat Index: 52°   Visibility: 5mi
Dew Point: 49°   Wind: 13mph
Humidity: 89%   Direction: 330°NNW
Pressure: 29.81"   Gusts: NA
Location:  39.72°N, 74.97°W
Report Text: KVAY 230041Z AUTO 33011KT 5SM RA BR BKN013 BKN023 OVC050 11/09 A2981 RMK AO2 P0006 T01110094
Loading
Personal Weather Stations






























Interactive Weather Map
Tropical Storm Tracking
New forecast layout! Learn more

10-Day Weather Forecast

Advertisements
Track Severe Weather on mobile